Time;durP1;ratioP1;P1;durP2;ratioP2;P2;SDS_P1;SDS_P2;PMS_P1;PMS_P2;Temp;Humidity;BMP_temperature;BMP_pressure;BME280_temperature;BME280_humidity;BME280_pressure;Samples;Min_cycle;Max_cycle;Signal;HPM_P1;HPM_P2
2022/09/08 00:01:34;;;;;;;1.30;1.20;;;23.40;53.00;;;;;;5008350;28;20226;-72
2022/09/08 00:04:03;;;;;;;1.30;1.10;;;23.40;53.90;;;;;;5012042;28;20264;-72
2022/09/08 00:06:31;;;;;;;1.30;1.20;;;23.30;53.60;;;;;;5013986;28;20187;-72
2022/09/08 00:08:58;;;;;;;1.30;1.20;;;23.20;54.30;;;;;;5012419;28;20423;-72
2022/09/08 00:11:28;;;;;;;1.30;1.20;;;23.20;54.00;;;;;;5011715;28;21032;-73
2022/09/08 00:13:57;;;;;;;1.30;1.20;;;23.20;53.40;;;;;;5010005;28;20424;-72
2022/09/08 00:16:23;;;;;;;1.30;1.23;;;23.10;53.30;;;;;;5010919;28;20479;-72
2022/09/08 00:18:52;;;;;;;1.30;1.20;;;23.10;54.80;;;;;;5013048;28;20446;-72
2022/09/08 00:21:23;;;;;;;1.30;1.20;;;23.10;54.10;;;;;;5010243;28;20475;-72
2022/09/08 00:23:49;;;;;;;1.30;1.10;;;23.10;53.30;;;;;;5012692;28;20481;-73
2022/09/08 00:26:15;;;;;;;1.30;1.20;;;23.20;50.30;;;;;;5013450;28;20419;-73
2022/09/08 00:28:41;;;;;;;1.30;1.20;;;22.90;52.20;;;;;;5013384;28;20435;-72
2022/09/08 00:31:06;;;;;;;1.30;1.17;;;22.60;52.70;;;;;;5011064;28;20902;-73
2022/09/08 00:33:32;;;;;;;1.30;1.20;;;22.30;54.30;;;;;;5011504;28;20195;-72
2022/09/08 00:35:58;;;;;;;1.30;1.20;;;22.20;55.60;;;;;;5010087;28;20176;-73
2022/09/08 00:38:24;;;;;;;1.30;1.20;;;22.20;56.60;;;;;;5012718;28;20518;-72
2022/09/08 00:40:51;;;;;;;1.30;1.20;;;22.20;56.60;;;;;;5011799;28;20211;-72
2022/09/08 00:43:40;;;;;;;1.30;1.20;;;22.60;51.50;;;;;;5008482;28;20431;-72
2022/09/08 00:46:08;;;;;;;1.30;1.30;;;22.60;50.60;;;;;;5010639;28;20506;-72
2022/09/08 00:48:41;;;;;;;1.30;1.20;;;22.50;50.50;;;;;;5012741;28;20794;-72
2022/09/08 00:51:07;;;;;;;1.30;1.17;;;22.80;50.00;;;;;;5012139;28;20445;-72
2022/09/08 00:53:37;;;;;;;1.30;1.20;;;23.00;48.60;;;;;;5008019;28;20442;-72
2022/09/08 00:56:05;;;;;;;1.30;1.17;;;23.20;50.50;;;;;;5009846;28;20943;-73
2022/09/08 00:58:35;;;;;;;1.30;1.13;;;22.90;51.80;;;;;;5011850;28;20496;-72
2022/09/08 01:01:01;;;;;;;1.30;1.10;;;22.90;46.50;;;;;;5011914;28;20465;-71
2022/09/08 01:03:27;;;;;;;1.30;1.10;;;23.00;49.30;;;;;;5012734;28;20793;-72
2022/09/08 01:06:10;;;;;;;1.30;1.17;;;23.00;49.40;;;;;;5008332;28;20477;-72
2022/09/08 01:14:49;;;;;;;1.30;1.17;;;22.90;52.30;;;;;;5007544;28;20461;-72
2022/09/08 01:17:21;;;;;;;1.40;1.30;;;23.10;52.00;;;;;;5003349;28;20434;-72
2022/09/08 01:19:48;;;;;;;1.30;1.20;;;23.10;52.20;;;;;;5012482;28;20418;-72
2022/09/08 01:22:44;;;;;;;1.30;1.20;;;23.10;51.60;;;;;;5009542;28;20530;-72
2022/09/08 01:25:28;;;;;;;1.30;1.20;;;23.00;51.50;;;;;;5008170;28;20446;-73
2022/09/08 01:28:05;;;;;;;1.30;1.30;;;22.90;51.60;;;;;;5012542;28;20425;-72
2022/09/08 01:30:33;;;;;;;1.30;1.20;;;22.90;51.10;;;;;;5010300;28;20516;-72
2022/09/08 01:33:01;;;;;;;1.30;1.10;;;22.80;50.00;;;;;;5008613;28;20867;-72
2022/09/08 01:35:30;;;;;;;1.30;1.10;;;23.00;49.50;;;;;;5010384;28;20458;-72
2022/09/08 01:37:56;;;;;;;1.30;1.20;;;23.00;50.50;;;;;;5011380;28;20439;-72
2022/09/08 01:40:22;;;;;;;1.30;1.20;;;23.00;50.30;;;;;;5006593;28;20431;-72
2022/09/08 01:42:47;;;;;;;1.30;1.10;;;22.90;51.90;;;;;;5009289;28;20218;-72
2022/09/08 01:45:13;;;;;;;1.30;1.10;;;23.00;50.70;;;;;;5011361;28;20187;-72
2022/09/08 01:47:39;;;;;;;1.30;1.20;;;22.90;51.60;;;;;;5011628;28;20226;-72
2022/09/08 01:50:04;;;;;;;1.30;1.20;;;22.90;51.60;;;;;;5010862;28;20216;-73
2022/09/08 01:52:30;;;;;;;1.30;1.20;;;22.90;52.30;;;;;;5007965;28;20196;-72
2022/09/08 01:54:55;;;;;;;1.30;1.20;;;23.00;49.70;;;;;;5010351;28;20609;-71
2022/09/08 01:57:21;;;;;;;1.30;1.17;;;22.90;50.20;;;;;;5008950;28;20187;-72
2022/09/08 01:59:47;;;;;;;1.90;1.40;;;22.80;51.00;;;;;;5011337;28;20192;-72
2022/09/08 02:02:13;;;;;;;1.30;1.20;;;22.80;51.30;;;;;;5003352;28;20564;-72
2022/09/08 02:04:39;;;;;;;1.30;1.20;;;22.80;51.50;;;;;;5007364;28;20438;-71
2022/09/08 02:07:05;;;;;;;1.30;1.10;;;22.80;52.70;;;;;;5004478;28;20198;-72
2022/09/08 02:09:31;;;;;;;1.30;1.10;;;22.70;53.80;;;;;;5006966;28;20438;-73
2022/09/08 02:11:57;;;;;;;1.30;1.17;;;22.60;53.60;;;;;;5007488;28;20609;-72
2022/09/08 02:14:23;;;;;;;1.43;1.27;;;22.70;53.50;;;;;;5009575;28;20216;-72
2022/09/08 02:16:48;;;;;;;1.30;1.20;;;22.60;53.70;;;;;;5003884;28;20469;-72
2022/09/08 02:19:14;;;;;;;1.30;1.20;;;22.50;54.10;;;;;;5011622;28;20742;-72
2022/09/08 02:21:40;;;;;;;1.30;1.20;;;22.50;54.40;;;;;;5010575;28;20270;-72
2022/09/08 02:24:05;;;;;;;1.30;1.10;;;22.60;54.70;;;;;;5010396;28;20173;-72
2022/09/08 02:26:31;;;;;;;1.30;1.10;;;22.50;54.40;;;;;;5004118;28;20179;-72
2022/09/08 02:28:57;;;;;;;1.30;1.20;;;22.40;55.20;;;;;;5011601;28;20330;-71
2022/09/08 02:31:24;;;;;;;1.30;1.13;;;22.40;55.30;;;;;;5010438;28;20308;-72
2022/09/08 02:33:50;;;;;;;1.30;1.20;;;22.40;55.80;;;;;;5009593;28;20473;-72
2022/09/08 02:36:16;;;;;;;1.30;1.20;;;22.40;55.90;;;;;;5024640;22;20526;-68
2022/09/08 02:38:46;;;;;;;1.30;1.20;;;22.40;55.20;;;;;;5027287;28;20215;-68
2022/09/08 02:41:12;;;;;;;1.40;1.30;;;22.50;54.80;;;;;;5022538;28;20492;-68
2022/09/08 02:43:38;;;;;;;1.30;1.20;;;22.60;54.70;;;;;;5027912;28;20552;-68
2022/09/08 02:46:07;;;;;;;1.30;1.10;;;22.60;54.30;;;;;;5023580;28;20180;-67
2022/09/08 02:48:34;;;;;;;1.30;1.20;;;22.50;54.70;;;;;;5025788;28;20507;-68
2022/09/08 02:51:02;;;;;;;1.30;1.20;;;22.50;53.70;;;;;;5022627;28;20423;-68
2022/09/08 02:53:29;;;;;;;1.30;1.13;;;22.40;55.20;;;;;;5029628;28;20433;-68
2022/09/08 02:55:56;;;;;;;1.30;1.00;;;22.30;53.90;;;;;;5021450;28;20420;-68
2022/09/08 02:58:22;;;;;;;1.30;1.20;;;22.30;55.00;;;;;;5030723;28;20477;-67
2022/09/08 03:00:48;;;;;;;1.30;1.10;;;22.40;53.90;;;;;;5030112;28;20453;-68
2022/09/08 03:03:14;;;;;;;1.30;1.20;;;22.30;55.60;;;;;;5029700;28;20537;-68
2022/09/08 03:05:40;;;;;;;1.30;1.10;;;22.50;52.20;;;;;;5018697;28;20190;-68
2022/09/08 03:08:08;;;;;;;1.30;1.27;;;22.40;54.00;;;;;;5024068;28;20499;-68
2022/09/08 03:10:34;;;;;;;1.30;1.20;;;22.40;53.60;;;;;;5030851;28;20435;-68
2022/09/08 03:13:00;;;;;;;1.30;1.10;;;22.40;53.10;;;;;;5030258;28;20429;-68
2022/09/08 03:15:28;;;;;;;1.30;1.10;;;22.30;53.80;;;;;;5029675;28;20470;-68
2022/09/08 03:17:54;;;;;;;1.30;1.17;;;22.50;52.80;;;;;;5022559;28;20611;-68
2022/09/08 03:20:22;;;;;;;1.40;1.30;;;22.40;54.10;;;;;;5017559;28;20839;-68
2022/09/08 03:22:48;;;;;;;1.30;1.20;;;22.20;55.00;;;;;;5029928;28;20534;-68
2022/09/08 03:25:14;;;;;;;1.30;1.20;;;22.20;55.50;;;;;;5030321;28;20461;-68
2022/09/08 03:27:40;;;;;;;1.30;1.20;;;22.20;56.00;;;;;;5024404;28;20461;-68
2022/09/08 03:30:09;;;;;;;1.30;1.20;;;22.10;57.10;;;;;;5021489;28;20432;-68
2022/09/08 03:32:36;;;;;;;1.30;1.10;;;22.10;56.50;;;;;;5029106;28;20196;-67
2022/09/08 03:35:03;;;;;;;1.30;1.17;;;22.00;56.50;;;;;;5014964;28;20487;-68
2022/09/08 03:37:29;;;;;;;1.30;1.10;;;22.00;56.40;;;;;;5022226;28;20575;-68
2022/09/08 03:39:54;;;;;;;1.30;1.13;;;21.90;54.00;;;;;;5015475;28;20425;-68
2022/09/08 03:42:20;;;;;;;1.30;1.10;;;21.70;54.00;;;;;;5029496;28;21742;-68
2022/09/08 03:44:46;;;;;;;1.30;1.20;;;21.50;56.10;;;;;;5031614;28;20231;-68
2022/09/08 03:47:12;;;;;;;1.30;1.20;;;21.60;52.50;;;;;;5034133;28;20444;-68
2022/09/08 03:49:38;;;;;;;1.30;1.20;;;21.70;54.80;;;;;;5034062;28;20180;-68
2022/09/08 03:52:03;;;;;;;1.33;1.30;;;21.90;50.10;;;;;;5033245;28;20478;-67
2022/09/08 03:54:50;;;;;;;1.30;1.20;;;22.00;53.20;;;;;;5032208;28;20688;-68
2022/09/08 03:57:20;;;;;;;1.30;1.20;;;22.00;51.70;;;;;;5032054;28;20204;-68
2022/09/08 03:59:46;;;;;;;1.30;1.10;;;21.70;51.10;;;;;;5032987;28;20522;-68
2022/09/08 04:02:14;;;;;;;1.30;1.10;;;21.70;54.10;;;;;;5030195;28;20538;-67
2022/09/08 04:04:40;;;;;;;1.30;1.10;;;21.70;54.90;;;;;;5033653;28;20178;-68
2022/09/08 04:07:05;;;;;;;1.30;1.20;;;21.50;55.20;;;;;;5033367;28;20505;-68
2022/09/08 04:09:31;;;;;;;1.30;1.10;;;21.30;54.00;;;;;;5032570;28;20658;-68
2022/09/08 04:11:57;;;;;;;1.30;1.20;;;21.50;55.40;;;;;;5031344;28;20188;-68
2022/09/08 04:14:23;;;;;;;1.30;1.10;;;21.50;55.30;;;;;;5031192;28;20188;-68
2022/09/08 04:16:48;;;;;;;1.30;1.13;;;21.70;54.80;;;;;;5033607;28;20236;-70
2022/09/08 04:19:15;;;;;;;1.30;1.27;;;21.70;55.40;;;;;;5033883;28;20192;-70
2022/09/08 04:21:41;;;;;;;1.30;1.10;;;21.50;49.70;;;;;;5030726;28;20211;-69
2022/09/08 04:24:07;;;;;;;1.30;1.10;;;21.50;54.20;;;;;;5029733;28;20439;-70
2022/09/08 04:26:32;;;;;;;1.30;1.20;;;21.50;55.30;;;;;;5031446;28;20202;-68
2022/09/08 04:28:58;;;;;;;1.30;1.20;;;21.60;52.80;;;;;;5026793;28;20178;-70
2022/09/08 04:31:24;;;;;;;1.30;1.10;;;21.80;50.50;;;;;;5029796;28;20190;-70
2022/09/08 04:33:50;;;;;;;1.30;1.20;;;21.80;52.70;;;;;;5032799;28;20469;-68
2022/09/08 04:36:18;;;;;;;1.30;1.10;;;21.90;52.30;;;;;;5030353;28;20247;-67
2022/09/08 04:38:44;;;;;;;1.30;1.20;;;21.80;54.30;;;;;;5028422;28;20185;-67
2022/09/08 04:41:13;;;;;;;1.30;1.10;;;21.80;54.30;;;;;;5032440;28;20430;-67
2022/09/08 04:43:38;;;;;;;1.30;1.10;;;21.70;54.20;;;;;;5031627;28;20430;-67
2022/09/08 04:46:07;;;;;;;1.30;1.20;;;21.70;55.40;;;;;;5026627;28;20433;-67
2022/09/08 04:48:35;;;;;;;1.30;1.10;;;21.60;55.20;;;;;;5021490;28;20439;-67
2022/09/08 04:51:01;;;;;;;1.30;1.10;;;21.70;55.30;;;;;;5032674;28;20803;-67
2022/09/08 04:53:28;;;;;;;1.30;1.27;;;21.70;55.40;;;;;;5031890;28;20874;-67
2022/09/08 04:55:54;;;;;;;1.30;1.20;;;21.70;55.10;;;;;;5025405;28;20899;-67
2022/09/08 04:58:21;;;;;;;1.30;1.10;;;21.70;55.40;;;;;;5019930;28;20577;-67
2022/09/08 05:00:47;;;;;;;1.30;1.10;;;21.70;53.60;;;;;;5029816;28;20941;-67
2022/09/08 05:03:13;;;;;;;1.30;1.10;;;21.70;54.50;;;;;;5024755;28;20511;-67
2022/09/08 05:05:39;;;;;;;1.30;1.10;;;21.70;55.20;;;;;;5029024;28;20456;-67
2022/09/08 05:08:04;;;;;;;1.30;1.10;;;21.40;54.90;;;;;;5031440;28;20224;-67
2022/09/08 05:10:33;;;;;;;1.30;1.20;;;21.50;56.30;;;;;;5025618;28;20230;-67
2022/09/08 05:13:00;;;;;;;1.30;1.30;;;21.50;56.30;;;;;;5020166;28;20824;-68
2022/09/08 05:15:26;;;;;;;1.30;1.17;;;21.60;55.40;;;;;;5030803;28;20945;-67
2022/09/08 05:17:53;;;;;;;1.30;1.13;;;21.60;52.60;;;;;;5019655;28;20447;-70
2022/09/08 05:20:19;;;;;;;1.30;1.20;;;21.40;52.40;;;;;;5032241;28;20415;-70
2022/09/08 05:22:44;;;;;;;1.30;1.20;;;21.40;54.80;;;;;;5021064;28;20506;-69
2022/09/08 05:25:10;;;;;;;1.30;1.10;;;21.50;53.50;;;;;;5018141;28;20173;-69
2022/09/08 05:27:35;;;;;;;1.30;1.20;;;21.30;53.80;;;;;;5031927;28;20263;-70
2022/09/08 05:30:01;;;;;;;1.30;1.20;;;21.40;50.80;;;;;;5032030;28;20263;-70
2022/09/08 05:32:27;;;;;;;1.30;1.20;;;21.50;50.70;;;;;;5026429;28;20196;-70
2022/09/08 05:34:53;;;;;;;1.30;1.17;;;21.30;53.00;;;;;;5014107;28;20271;-70
2022/09/08 05:37:18;;;;;;;1.30;1.20;;;21.10;57.20;;;;;;5031417;28;20212;-70
2022/09/08 05:39:46;;;;;;;1.30;1.10;;;21.10;56.90;;;;;;5026466;28;20194;-69
2022/09/08 05:42:11;;;;;;;1.30;1.03;;;21.40;53.00;;;;;;5016862;28;20208;-70
2022/09/08 05:44:37;;;;;;;1.30;1.20;;;21.50;53.90;;;;;;5029578;28;20435;-70
2022/09/08 05:47:03;;;;;;;1.30;1.20;;;21.50;52.60;;;;;;5028210;28;20290;-69
2022/09/08 05:49:28;;;;;;;1.30;1.20;;;21.30;51.50;;;;;;5024332;28;20217;-69
2022/09/08 05:51:54;;;;;;;1.30;1.10;;;21.20;57.30;;;;;;5028122;28;20184;-70
2022/09/08 05:54:21;;;;;;;1.30;1.10;;;21.40;54.20;;;;;;5030833;28;20311;-69
2022/09/08 05:56:46;;;;;;;1.30;1.20;;;21.60;53.90;;;;;;5030269;28;20204;-69
2022/09/08 05:59:12;;;;;;;1.30;1.20;;;21.60;55.40;;;;;;5031907;28;20982;-70
2022/09/08 06:01:38;;;;;;;1.30;1.20;;;21.60;56.50;;;;;;5021374;28;20646;-70
2022/09/08 06:04:04;;;;;;;1.30;1.20;;;21.60;55.60;;;;;;5029539;28;20686;-69
2022/09/08 06:06:31;;;;;;;1.30;1.20;;;21.70;55.80;;;;;;5015745;28;20221;-69
2022/09/08 06:09:00;;;;;;;1.30;1.17;;;21.70;55.90;;;;;;5013152;28;20431;-69
2022/09/08 06:11:28;;;;;;;1.30;1.20;;;21.80;54.30;;;;;;5025542;28;20567;-70
2022/09/08 06:13:54;;;;;;;1.30;1.10;;;21.70;56.30;;;;;;5021940;28;20430;-70
2022/09/08 06:16:20;;;;;;;1.30;1.00;;;21.60;55.40;;;;;;5027979;28;20812;-70
2022/09/08 06:18:47;;;;;;;1.30;1.10;;;21.20;55.60;;;;;;5031335;28;20184;-70
2022/09/08 06:21:20;;;;;;;1.30;1.20;;;20.80;59.50;;;;;;5030691;28;20271;-70
2022/09/08 06:23:54;;;;;;;1.30;1.10;;;20.30;62.20;;;;;;5030651;28;20782;-70
2022/09/08 06:26:35;;;;;;;1.30;1.10;;;20.50;62.50;;;;;;5030801;28;20417;-70
2022/09/08 06:29:04;;;;;;;1.30;1.30;;;20.80;62.50;;;;;;5029132;28;20416;-70
2022/09/08 06:31:36;;;;;;;1.30;1.10;;;21.00;60.40;;;;;;5030880;28;20435;-70
2022/09/08 06:34:11;;;;;;;1.30;1.10;;;21.00;62.20;;;;;;5030959;28;20506;-71
2022/09/08 06:36:49;;;;;;;1.30;1.20;;;21.10;58.90;;;;;;5030216;28;20893;-70
2022/09/08 06:39:53;;;;;;;1.30;1.10;;;21.10;61.60;;;;;;5031141;28;20426;-70
2022/09/08 06:42:29;;;;;;;1.30;1.20;;;21.30;59.40;;;;;;4988531;28;20628;-70
2022/09/08 06:44:58;;;;;;;1.30;1.10;;;21.30;59.10;;;;;;4988917;28;20429;-71
2022/09/08 06:47:30;;;;;;;1.30;1.10;;;21.30;60.20;;;;;;4991656;28;20469;-70
2022/09/08 06:49:55;;;;;;;1.30;1.20;;;21.30;55.10;;;;;;4983416;28;20504;-70
2022/09/08 06:52:46;;;;;;;1.30;1.20;;;21.30;54.10;;;;;;4986959;28;20428;-70
2022/09/08 06:55:23;;;;;;;1.30;1.30;;;21.20;53.60;;;;;;4976133;28;20196;-69
2022/09/08 06:58:06;;;;;;;1.30;1.20;;;20.90;54.50;;;;;;4982256;28;20499;-70
2022/09/08 07:00:59;;;;;;;1.30;1.27;;;20.70;56.50;;;;;;4982081;28;20485;-70
2022/09/08 07:03:30;;;;;;;1.30;1.20;;;20.30;58.20;;;;;;4984106;28;20453;-71
2022/09/08 07:06:04;;;;;;;1.30;1.10;;;20.00;61.20;;;;;;4986462;28;20455;-70
2022/09/08 07:08:35;;;;;;;1.30;1.20;;;19.30;65.20;;;;;;4984013;28;20448;-69
2022/09/08 07:11:25;;;;;;;1.30;1.10;;;19.40;66.30;;;;;;4982752;28;20441;-70
2022/09/08 07:14:13;;;;;;;1.30;1.10;;;19.70;62.30;;;;;;4985701;28;20453;-70
2022/09/08 07:16:51;;;;;;;1.30;1.00;;;19.90;61.80;;;;;;5009252;28;20470;-70
2022/09/08 07:19:49;;;;;;;1.30;1.10;;;19.80;62.40;;;;;;5023123;28;20433;-70
2022/09/08 07:22:43;;;;;;;1.30;1.20;;;20.00;66.90;;;;;;5026000;28;20876;-70
2022/09/08 07:25:16;;;;;;;1.30;1.10;;;20.30;63.50;;;;;;5029321;28;20441;-70
2022/09/08 07:27:44;;;;;;;1.30;1.10;;;20.60;59.30;;;;;;5024725;28;20471;-80
2022/09/08 07:30:15;;;;;;;1.30;1.20;;;20.80;60.50;;;;;;5030038;28;20533;-71
2022/09/08 07:32:44;;;;;;;1.30;1.20;;;20.90;60.20;;;;;;5024151;28;20695;-70
2022/09/08 07:35:33;;;;;;;1.30;1.20;;;21.10;58.40;;;;;;5035295;28;20583;-70
2022/09/08 07:38:04;;;;;;;1.30;1.20;;;21.20;58.90;;;;;;5030512;28;20487;-70
2022/09/08 07:40:43;;;;;;;1.30;1.20;;;21.30;61.10;;;;;;5026288;28;20445;-70
2022/09/08 07:43:11;;;;;;;1.30;1.10;;;21.30;59.10;;;;;;5028112;28;21108;-70
2022/09/08 07:45:56;;;;;;;1.30;1.20;;;21.30;57.00;;;;;;5025808;28;20443;-70
2022/09/08 07:48:34;;;;;;;1.30;1.20;;;21.30;59.60;;;;;;5028322;28;20458;-70
2022/09/08 07:51:14;;;;;;;1.30;1.20;;;21.40;59.20;;;;;;5031728;28;20495;-70
2022/09/08 07:54:06;;;;;;;1.30;1.30;;;21.20;58.30;;;;;;5023953;28;20450;-69
2022/09/08 07:56:42;;;;;;;1.30;1.20;;;21.30;59.60;;;;;;5023513;28;20472;-70
2022/09/08 07:59:10;;;;;;;1.30;1.20;;;21.30;59.90;;;;;;5026160;28;20433;-70
2022/09/08 08:01:48;;;;;;;1.30;1.10;;;21.30;60.90;;;;;;5025099;28;20851;-70
2022/09/08 08:04:13;;;;;;;1.30;1.20;;;21.40;61.20;;;;;;5022792;28;20429;-73
2022/09/08 08:06:54;;;;;;;1.30;1.13;;;21.50;60.80;;;;;;5025218;28;20476;-70
2022/09/08 08:09:30;;;;;;;1.30;1.10;;;21.60;62.00;;;;;;5019289;28;20175;-67
2022/09/08 08:12:01;;;;;;;1.30;1.20;;;21.80;59.50;;;;;;5026183;28;20516;-70
2022/09/08 08:14:33;;;;;;;1.30;1.10;;;21.80;59.50;;;;;;5018543;28;20425;-70
2022/09/08 08:17:20;;;;;;;1.30;1.20;;;21.70;60.50;;;;;;5033402;28;20450;-68
2022/09/08 08:20:23;;;;;;;1.30;1.20;;;21.60;57.10;;;;;;5033410;28;20427;-68
2022/09/08 08:23:00;;;;;;;1.30;1.13;;;21.00;58.70;;;;;;5032647;28;20459;-68
2022/09/08 08:25:29;;;;;;;1.30;1.23;;;20.80;60.40;;;;;;5025273;28;20469;-68
2022/09/08 08:28:17;;;;;;;1.30;1.10;;;20.20;68.40;;;;;;5033219;28;20973;-68
2022/09/08 08:31:22;;;;;;;1.30;1.20;;;20.20;65.60;;;;;;5040926;28;20451;-67
2022/09/08 08:33:54;;;;;;;1.30;1.20;;;20.30;65.90;;;;;;5027063;28;20795;-68
2022/09/08 08:36:24;;;;;;;1.30;1.20;;;20.30;66.40;;;;;;5032357;28;20500;-68
2022/09/08 08:39:16;;;;;;;1.30;1.30;;;20.50;65.40;;;;;;5033058;28;20467;-68
2022/09/08 08:41:53;;;;;;;1.30;1.20;;;21.20;60.30;;;;;;5025669;28;20965;-68
2022/09/08 08:44:42;;;;;;;1.30;1.17;;;21.60;55.30;;;;;;5032222;28;20471;-67
2022/09/08 08:50:38;;;;;;;1.30;1.20;;;21.50;62.30;;;;;;5072411;22;20501;-74
2022/09/08 08:54:00;;;;;;;1.30;1.20;;;21.70;57.80;;;;;;5010395;28;20447;-71
2022/09/08 08:56:32;;;;;;;1.30;1.10;;;21.80;59.40;;;;;;4959751;28;20436;-72
2022/09/08 08:59:32;;;;;;;1.30;1.20;;;22.00;58.80;;;;;;4971026;28;20515;-71
2022/09/08 09:02:15;;;;;;;1.30;1.10;;;22.00;52.40;;;;;;4952187;28;20496;-73
2022/09/08 09:04:44;;;;;;;1.30;1.20;;;21.20;57.80;;;;;;4952387;28;20456;-71
2022/09/08 09:07:18;;;;;;;1.30;1.20;;;21.40;56.60;;;;;;4960231;28;20433;-73
2022/09/08 09:10:02;;;;;;;1.30;1.20;;;21.10;53.90;;;;;;4962784;28;20822;-72
2022/09/08 09:12:37;;;;;;;1.30;1.23;;;21.00;59.20;;;;;;4970173;28;20441;-71
2022/09/08 09:15:21;;;;;;;1.30;1.20;;;21.10;57.80;;;;;;4958506;28;20436;-71
2022/09/08 09:18:10;;;;;;;1.30;1.20;;;21.60;56.50;;;;;;4967767;28;20550;-71
2022/09/08 09:20:59;;;;;;;1.30;1.20;;;22.10;53.50;;;;;;4970118;28;20472;-72
2022/09/08 09:23:57;;;;;;;1.30;1.07;;;22.20;53.80;;;;;;4961940;28;20484;-71
2022/09/08 09:26:26;;;;;;;1.30;1.10;;;22.20;52.90;;;;;;4968259;28;20447;-71
2022/09/08 09:28:57;;;;;;;1.30;1.30;;;22.80;47.90;;;;;;5009156;28;20458;-71
2022/09/08 09:31:44;;;;;;;1.30;1.10;;;23.10;46.70;;;;;;5006383;28;20423;-72
2022/09/08 09:34:22;;;;;;;1.30;1.10;;;23.30;44.70;;;;;;5011829;28;20839;-71
2022/09/08 09:37:26;;;;;;;1.30;1.20;;;22.60;48.60;;;;;;4994489;28;20480;-71
2022/09/08 09:40:11;;;;;;;1.30;1.10;;;22.90;49.00;;;;;;5011206;28;20419;-71
2022/09/08 09:42:46;;;;;;;1.30;1.30;;;22.30;51.50;;;;;;5003479;28;20459;-71
2022/09/08 09:45:30;;;;;;;1.30;1.20;;;21.80;53.50;;;;;;5003431;28;20408;-71
2022/09/08 09:47:56;;;;;;;1.30;1.13;;;21.70;54.10;;;;;;5008871;28;20502;-71
2022/09/08 09:50:40;;;;;;;1.30;1.20;;;21.30;54.80;;;;;;4997893;28;20825;-71
2022/09/08 09:53:17;;;;;;;1.30;1.13;;;21.10;52.50;;;;;;5000453;28;20700;-73
2022/09/08 09:56:34;;;;;;;1.30;1.20;;;20.70;55.90;;;;;;4992635;28;20887;-71
2022/09/08 09:59:23;;;;;;;1.30;1.27;;;20.60;58.50;;;;;;5009859;28;20981;-71
2022/09/08 10:02:05;;;;;;;1.30;1.20;;;21.20;54.30;;;;;;4992675;28;20460;-71
2022/09/08 10:04:34;;;;;;;1.30;1.20;;;21.40;52.70;;;;;;4992600;28;20435;-72
2022/09/08 10:07:43;;;;;;;1.50;1.27;;;21.00;52.30;;;;;;4992632;28;20795;-71
2022/09/08 10:10:26;;;;;;;1.30;1.10;;;20.60;53.60;;;;;;5000173;28;20811;-71
2022/09/08 10:13:21;;;;;;;1.30;1.17;;;20.60;55.20;;;;;;4991546;28;20437;-74
2022/09/08 10:16:01;;;;;;;1.30;1.20;;;20.70;56.60;;;;;;5003101;28;20952;-71
2022/09/08 10:18:36;;;;;;;1.30;1.00;;;21.20;52.00;;;;;;5004480;28;20485;-73
2022/09/08 10:21:43;;;;;;;1.30;1.10;;;22.00;52.50;;;;;;5002602;28;20506;-71
2022/09/08 10:24:56;;;;;;;1.30;1.10;;;21.90;49.10;;;;;;5010512;28;20455;-71
2022/09/08 10:27:39;;;;;;;1.30;1.20;;;22.60;46.70;;;;;;5020375;28;20932;-71
2022/09/08 10:30:11;;;;;;;1.30;1.20;;;22.30;49.50;;;;;;5019779;28;20477;-71
2022/09/08 10:33:24;;;;;;;1.30;1.20;;;22.20;44.50;;;;;;5016252;28;20420;-71
2022/09/08 10:36:21;;;;;;;1.30;1.10;;;22.80;40.30;;;;;;4941668;28;20438;-72
2022/09/08 10:39:00;;;;;;;1.30;1.10;;;22.20;40.80;;;;;;4887751;29;20542;-71
2022/09/08 10:41:50;;;;;;;1.30;1.20;;;22.10;43.60;;;;;;4892864;29;21028;-71
2022/09/08 10:44:24;;;;;;;1.30;1.20;;;22.50;40.10;;;;;;4884820;29;20855;-71
2022/09/08 10:47:15;;;;;;;1.30;1.20;;;22.40;40.90;;;;;;4893852;29;20434;-72
2022/09/08 10:50:19;;;;;;;1.30;1.20;;;22.60;41.30;;;;;;4886813;29;20451;-71
2022/09/08 10:53:09;;;;;;;1.30;1.20;;;22.80;37.30;;;;;;4886835;29;20439;-71
2022/09/08 10:55:53;;;;;;;1.30;1.10;;;22.80;38.70;;;;;;4886983;29;20510;-72
2022/09/08 10:58:43;;;;;;;1.30;1.20;;;24.20;35.50;;;;;;4872585;29;20455;-71
2022/09/08 11:01:46;;;;;;;1.30;1.10;;;24.00;33.30;;;;;;4860182;29;20853;-71
2022/09/08 11:04:49;;;;;;;1.30;1.10;;;23.20;33.50;;;;;;4856756;29;20961;-71
2022/09/08 11:07:43;;;;;;;1.30;1.20;;;23.20;33.90;;;;;;4844626;29;20905;-75
2022/09/08 11:10:33;;;;;;;1.30;1.20;;;23.50;33.40;;;;;;4876958;29;20479;-72
2022/09/08 11:13:20;;;;;;;1.30;1.20;;;23.50;32.10;;;;;;4901979;29;20531;-73
2022/09/08 11:16:22;;;;;;;1.30;1.20;;;23.00;33.30;;;;;;4955758;28;20993;-71
2022/09/08 11:18:59;;;;;;;1.30;1.20;;;22.90;34.80;;;;;;4991765;28;20938;-71
2022/09/08 11:21:29;;;;;;;1.30;1.20;;;22.80;32.50;;;;;;4997738;28;20425;-71
2022/09/08 11:24:34;;;;;;;1.30;1.20;;;22.50;36.00;;;;;;5013810;28;20470;-72
2022/09/08 11:27:11;;;;;;;1.30;1.13;;;23.10;35.80;;;;;;4992703;28;20442;-71
2022/09/08 11:29:39;;;;;;;1.30;1.10;;;23.60;34.10;;;;;;5003910;28;20431;-72
2022/09/08 11:32:21;;;;;;;1.30;1.10;;;23.50;34.60;;;;;;5000400;28;20423;-72
2022/09/08 11:34:56;;;;;;;1.30;1.10;;;23.70;34.00;;;;;;5001076;28;20424;-71
2022/09/08 11:37:42;;;;;;;1.30;1.20;;;23.70;33.80;;;;;;5002943;28;20906;-71
2022/09/08 11:40:26;;;;;;;1.30;1.10;;;24.30;33.70;;;;;;5000058;28;20790;-72
2022/09/08 11:43:01;;;;;;;1.30;1.20;;;24.50;32.50;;;;;;4987096;28;20456;-72
2022/09/08 11:45:35;;;;;;;1.30;1.20;;;24.80;30.90;;;;;;5003250;28;20490;-71
2022/09/08 11:48:25;;;;;;;1.30;1.10;;;24.40;31.70;;;;;;5001402;28;20522;-71
2022/09/08 11:51:10;;;;;;;1.30;1.10;;;24.30;30.80;;;;;;5002049;28;20456;-72
2022/09/08 11:53:52;;;;;;;1.30;1.20;;;23.30;32.40;;;;;;5002067;28;20801;-72
2022/09/08 11:56:35;;;;;;;1.30;1.20;;;23.10;32.40;;;;;;4994705;28;20427;-71
2022/09/08 11:59:17;;;;;;;1.30;1.10;;;23.20;32.80;;;;;;4988623;28;20531;-71
2022/09/08 12:02:08;;;;;;;1.30;1.20;;;23.40;33.70;;;;;;4998028;28;20464;-71
2022/09/08 12:05:01;;;;;;;1.30;1.20;;;23.10;33.60;;;;;;4994632;28;20526;-73
2022/09/08 12:07:49;;;;;;;1.30;1.10;;;22.40;35.20;;;;;;5003950;28;20449;-72
2022/09/08 12:10:38;;;;;;;1.30;1.20;;;22.50;35.00;;;;;;4996196;28;20955;-71
2022/09/08 12:13:11;;;;;;;1.30;1.10;;;23.40;33.70;;;;;;5004122;28;20527;-72
2022/09/08 12:15:59;;;;;;;1.30;1.10;;;24.50;32.30;;;;;;5004983;28;20519;-72
2022/09/08 12:18:35;;;;;;;1.30;1.10;;;25.20;30.00;;;;;;4994149;28;20445;-71
2022/09/08 12:21:12;;;;;;;1.30;1.10;;;25.50;29.10;;;;;;5005365;28;20423;-72
2022/09/08 12:23:58;;;;;;;1.30;1.10;;;26.50;28.20;;;;;;5004801;28;20429;-72
2022/09/08 12:26:56;;;;;;;1.30;1.10;;;26.70;25.80;;;;;;5003071;28;20916;-71
2022/09/08 12:29:50;;;;;;;1.30;1.10;;;26.10;27.40;;;;;;4999699;28;20548;-72
2022/09/08 12:32:36;;;;;;;1.30;1.17;;;26.60;27.30;;;;;;5000319;28;20728;-72
2022/09/08 12:35:04;;;;;;;1.30;1.10;;;26.30;26.00;;;;;;5000908;28;20527;-71
2022/09/08 12:37:49;;;;;;;1.30;1.20;;;25.20;28.20;;;;;;4993788;28;20448;-71
2022/09/08 12:40:52;;;;;;;1.30;1.17;;;23.80;30.00;;;;;;4991838;28;20510;-72
2022/09/08 12:43:20;;;;;;;1.30;1.20;;;23.40;31.90;;;;;;4989326;28;20475;-72
2022/09/08 12:46:03;;;;;;;1.30;1.10;;;23.90;31.60;;;;;;5011577;28;20440;-71
2022/09/08 12:48:35;;;;;;;1.30;1.10;;;24.70;29.80;;;;;;4987921;28;20979;-71
2022/09/08 12:51:21;;;;;;;1.30;1.20;;;25.50;28.40;;;;;;5001430;28;20425;-72
2022/09/08 12:54:06;;;;;;;1.30;1.30;;;25.40;28.80;;;;;;5009826;28;20527;-72
2022/09/08 12:56:43;;;;;;;1.30;1.20;;;25.30;27.70;;;;;;5007891;28;20903;-72
2022/09/08 12:59:21;;;;;;;1.30;1.17;;;25.40;28.40;;;;;;5002828;28;20453;-72
2022/09/08 13:01:56;;;;;;;1.30;1.20;;;26.80;26.00;;;;;;4999336;28;20467;-74
2022/09/08 13:04:38;;;;;;;1.30;1.30;;;27.00;24.30;;;;;;4986051;28;20452;-72
2022/09/08 13:07:28;;;;;;;1.30;1.20;;;25.30;25.00;;;;;;4993810;28;20424;-72
2022/09/08 13:10:12;;;;;;;1.30;1.20;;;25.30;25.50;;;;;;4999773;28;20502;-72
2022/09/08 13:12:56;;;;;;;1.30;1.20;;;24.70;29.30;;;;;;4998477;28;20432;-72
2022/09/08 13:15:30;;;;;;;1.30;1.20;;;25.00;27.30;;;;;;5003954;28;21052;-72
2022/09/08 13:18:24;;;;;;;1.30;1.13;;;25.70;26.00;;;;;;4998055;28;20456;-72
2022/09/08 13:21:09;;;;;;;1.40;1.20;;;26.00;26.20;;;;;;4992565;28;20749;-72
2022/09/08 13:23:41;;;;;;;1.30;1.10;;;26.00;25.90;;;;;;4999617;28;20456;-72
2022/09/08 13:26:31;;;;;;;1.30;1.20;;;25.80;26.90;;;;;;5006690;28;20779;-72
2022/09/08 13:29:02;;;;;;;1.30;1.20;;;25.60;27.70;;;;;;4993170;28;20784;-72
2022/09/08 13:31:45;;;;;;;1.30;1.10;;;25.40;26.40;;;;;;4996439;28;20456;-73
2022/09/08 13:34:35;;;;;;;1.30;1.20;;;24.70;27.70;;;;;;4996053;28;20916;-72
2022/09/08 13:37:23;;;;;;;1.60;1.50;;;24.80;29.40;;;;;;5008623;28;20455;-72
2022/09/08 13:40:47;;;;;;;1.30;1.10;;;25.70;26.30;;;;;;4988134;28;20416;-72